Hazelwood, North Carolina
Current Conditions -  °F | °C
As of 3:54 PM on Saturday 25 Oct 2014 (Local Time) from KAVL Reporting Station
Clear Clear  
Wind Chill: 71°   Ceiling: Unl
Heat Index: 71°   Visibility: 10mi
Dew Point: 40°   Wind: 12mph
Humidity: 32%   Direction: 350°N
Pressure: 30.01"   Gusts: NA
Location:  35.47°N, 83°W
Report Text: KAVL 251954Z AUTO 35010KT 10SM CLR 22/04 A3001 RMK AO2 SLP148 T02170044
Loading
Personal Weather Stations






























Interactive Weather Map
Tropical Storm Tracking
New forecast layout! Learn more

10-Day Weather Forecast

Advertisements
Track Severe Weather on mobile